createdAt,value
2022-12-23T00:01:27.717Z,1.52
2022-12-23T00:03:58.424Z,1.51
2022-12-23T00:06:25.480Z,1.51
2022-12-23T00:08:58.447Z,1.56
2022-12-23T00:11:27.639Z,1.55
2022-12-23T00:14:20.636Z,1.55
2022-12-23T00:16:50.304Z,1.58
2022-12-23T00:19:17.264Z,1.61
2022-12-23T00:21:44.092Z,1.63
2022-12-23T00:24:12.054Z,1.61
2022-12-23T00:26:39.086Z,1.63
2022-12-23T00:29:05.890Z,1.62
2022-12-23T00:31:32.736Z,1.61
2022-12-23T00:33:59.587Z,1.64
2022-12-23T00:36:28.787Z,1.67
2022-12-23T00:39:15.811Z,1.68
2022-12-23T00:42:01.168Z,1.69
2022-12-23T00:44:28.262Z,1.67
2022-12-23T00:46:55.036Z,1.71
2022-12-23T00:49:40.485Z,1.79
2022-12-23T00:52:09.096Z,1.99
2022-12-23T00:54:36.555Z,1.94
2022-12-23T00:57:03.887Z,1.89
2022-12-23T00:59:30.737Z,1.87
2022-12-23T01:02:16.388Z,1.89
2022-12-23T01:05:02.078Z,1.89
2022-12-23T01:07:29.043Z,1.87
2022-12-23T01:09:55.790Z,1.85
2022-12-23T01:12:23.038Z,1.86
2022-12-23T01:14:49.841Z,1.90
2022-12-23T01:17:16.682Z,1.92
2022-12-23T01:19:43.614Z,1.92
2022-12-23T01:22:10.448Z,1.88
2022-12-23T01:24:37.342Z,1.85
2022-12-23T01:27:04.149Z,1.85
2022-12-23T01:29:31.034Z,1.82
2022-12-23T01:31:57.914Z,1.93
2022-12-23T01:34:24.775Z,1.92
2022-12-23T01:36:51.622Z,1.87
2022-12-23T01:39:18.511Z,1.84
2022-12-23T01:42:03.993Z,1.83
2022-12-23T01:44:49.501Z,1.82
2022-12-23T01:47:44.967Z,1.83
2022-12-23T01:50:19.922Z,1.81
2022-12-23T01:52:56.154Z,1.80
2022-12-23T01:55:27.281Z,1.88
2022-12-23T01:57:59.794Z,1.89
2022-12-23T02:00:45.178Z,1.88
2022-12-23T02:03:30.917Z,1.83
2022-12-23T02:06:18.712Z,1.89
2022-12-23T02:09:04.151Z,1.91
2022-12-23T02:11:52.282Z,1.90
2022-12-23T02:15:05.840Z,2.00
2022-12-23T02:18:05.687Z,1.88
2022-12-23T02:21:06.908Z,1.85
2022-12-23T02:23:52.371Z,1.93
2022-12-23T02:26:56.420Z,1.84
2022-12-23T02:29:51.087Z,1.81
2022-12-23T02:32:40.453Z,1.68
2022-12-23T02:35:14.812Z,1.60
2022-12-23T02:37:55.672Z,1.57
2022-12-23T02:40:32.211Z,1.62
2022-12-23T02:43:19.365Z,1.52
2022-12-23T02:46:15.091Z,1.40
2022-12-23T02:48:54.437Z,1.31
2022-12-23T02:51:24.862Z,1.25
2022-12-23T02:53:57.537Z,1.29
2022-12-23T02:56:27.333Z,1.18
2022-12-23T02:59:09.595Z,1.16
2022-12-23T03:01:39.011Z,1.11
2022-12-23T03:04:06.868Z,1.12
2022-12-23T03:06:39.501Z,1.11
2022-12-23T03:09:07.278Z,1.13
2022-12-23T03:11:49.459Z,1.13
2022-12-23T03:14:36.258Z,1.13
2022-12-23T03:17:27.501Z,1.12
2022-12-23T03:20:09.259Z,1.16
2022-12-23T03:22:41.932Z,1.11
2022-12-23T03:25:19.875Z,1.13
2022-12-23T03:27:56.772Z,1.13
2022-12-23T03:30:24.609Z,1.12
2022-12-23T03:33:07.208Z,1.11
2022-12-23T03:35:40.644Z,1.17
2022-12-23T03:38:11.510Z,1.16
2022-12-23T03:41:00.757Z,1.18
2022-12-23T03:43:33.082Z,1.25
2022-12-23T03:46:06.075Z,1.25
2022-12-23T03:48:38.840Z,1.29
2022-12-23T03:51:12.444Z,1.28
2022-12-23T03:53:49.262Z,1.27
2022-12-23T03:56:26.254Z,1.24
2022-12-23T03:59:00.055Z,1.18
2022-12-23T04:01:49.073Z,1.15
2022-12-23T04:04:29.916Z,1.22
2022-12-23T04:07:07.586Z,1.20
2022-12-23T04:09:35.637Z,1.20
2022-12-23T04:12:02.970Z,1.18
2022-12-23T04:14:30.637Z,1.20
2022-12-23T04:16:59.341Z,1.17
2022-12-23T04:19:26.360Z,1.20
2022-12-23T04:21:57.835Z,1.18
2022-12-23T04:24:24.757Z,1.17
2022-12-23T04:26:51.520Z,1.00
2022-12-23T04:29:18.359Z,1.02
2022-12-23T04:31:45.127Z,1.00
2022-12-23T04:34:12.102Z,1.02
2022-12-23T04:36:38.842Z,0.91
2022-12-23T04:39:05.715Z,0.96
2022-12-23T04:41:32.511Z,0.89
2022-12-23T04:43:59.349Z,0.87
2022-12-23T04:46:26.321Z,0.84
2022-12-23T04:48:53.169Z,0.89
2022-12-23T04:51:20.167Z,0.91
2022-12-23T04:53:46.915Z,0.99
2022-12-23T04:56:13.686Z,0.97
2022-12-23T04:58:40.785Z,0.98
2022-12-23T05:01:10.033Z,0.95
2022-12-23T05:03:37.879Z,0.98
2022-12-23T05:06:05.819Z,1.02
2022-12-23T05:08:32.989Z,0.98
2022-12-23T05:10:59.885Z,0.95
2022-12-23T05:13:26.996Z,1.05
2022-12-23T05:15:54.646Z,0.94
2022-12-23T05:18:22.224Z,0.89
2022-12-23T05:20:49.540Z,0.86
2022-12-23T05:23:16.373Z,0.85
2022-12-23T05:25:43.188Z,0.88
2022-12-23T05:28:10.411Z,0.91
2022-12-23T05:30:37.217Z,0.84
2022-12-23T05:33:04.010Z,0.89
2022-12-23T05:35:30.824Z,0.88
2022-12-23T05:37:57.876Z,0.78
2022-12-23T05:40:28.481Z,0.88
2022-12-23T05:42:59.268Z,0.89
2022-12-23T05:45:26.112Z,0.91
2022-12-23T05:47:53.023Z,0.92
2022-12-23T05:50:19.817Z,0.95
2022-12-23T05:52:48.714Z,0.92
2022-12-23T05:55:15.543Z,0.95
2022-12-23T05:57:42.399Z,0.93
2022-12-23T06:00:10.057Z,0.96
2022-12-23T06:02:40.526Z,0.92
2022-12-23T06:05:07.884Z,0.86
2022-12-23T06:07:34.703Z,0.80
2022-12-23T06:10:01.499Z,0.82
2022-12-23T06:12:28.309Z,0.89
2022-12-23T06:14:55.143Z,0.96
2022-12-23T06:17:21.989Z,0.90
2022-12-23T06:19:48.889Z,0.89
2022-12-23T06:22:16.385Z,0.83
2022-12-23T06:24:43.741Z,0.91
2022-12-23T06:27:10.999Z,0.92
2022-12-23T06:29:37.971Z,0.90
2022-12-23T06:32:05.193Z,0.88
2022-12-23T06:34:32.104Z,0.86
2022-12-23T06:36:59.317Z,0.84
2022-12-23T06:39:26.639Z,0.89
2022-12-23T06:41:53.373Z,0.87
2022-12-23T06:44:20.452Z,0.90
2022-12-23T06:46:47.251Z,0.91
2022-12-23T06:49:14.210Z,0.85
2022-12-23T06:51:41.310Z,0.90
2022-12-23T06:54:11.424Z,0.93
2022-12-23T06:56:38.926Z,0.97
2022-12-23T06:59:05.834Z,0.98
2022-12-23T07:01:33.698Z,1.03
2022-12-23T07:04:00.608Z,1.08
2022-12-23T07:06:27.439Z,1.15
2022-12-23T07:08:54.324Z,1.13
2022-12-23T07:11:21.053Z,1.16
2022-12-23T07:13:57.580Z,1.14
2022-12-23T07:16:24.419Z,1.15
2022-12-23T07:18:51.201Z,1.19
2022-12-23T07:21:24.826Z,1.19
2022-12-23T07:23:55.665Z,1.15
2022-12-23T07:26:22.595Z,1.11
2022-12-23T07:28:49.346Z,1.17
2022-12-23T07:31:16.390Z,1.16
2022-12-23T07:33:43.410Z,1.27
2022-12-23T07:36:10.363Z,1.26
2022-12-23T07:38:37.260Z,1.30
2022-12-23T07:41:04.160Z,1.34
2022-12-23T07:43:31.070Z,1.44
2022-12-23T07:46:00.821Z,1.48
2022-12-23T07:48:28.419Z,1.43
2022-12-23T07:51:01.721Z,1.41
2022-12-23T07:53:28.800Z,1.48
2022-12-23T07:55:56.794Z,1.57
2022-12-23T07:58:24.225Z,1.61
2022-12-23T08:00:54.819Z,1.69
2022-12-23T08:03:29.618Z,1.65
2022-12-23T08:06:06.159Z,1.68
2022-12-23T08:08:33.350Z,1.78
2022-12-23T08:11:02.927Z,1.81
2022-12-23T08:13:30.644Z,1.79
2022-12-23T08:15:59.709Z,1.77
2022-12-23T08:18:29.756Z,1.76
2022-12-23T08:21:01.683Z,1.72
2022-12-23T08:23:29.918Z,1.73
2022-12-23T08:26:19.412Z,1.78
2022-12-23T08:28:46.371Z,1.87
2022-12-23T08:31:18.384Z,1.92
2022-12-23T08:33:48.437Z,2.02
2022-12-23T08:36:22.782Z,2.06
2022-12-23T08:38:52.440Z,2.09
2022-12-23T08:41:25.905Z,2.09
2022-12-23T08:43:53.231Z,2.11
2022-12-23T08:46:20.653Z,2.12
2022-12-23T08:48:49.747Z,2.08
2022-12-23T08:51:19.615Z,2.12
2022-12-23T08:53:47.341Z,2.11
2022-12-23T08:56:18.702Z,2.22
2022-12-23T08:58:47.179Z,2.30
2022-12-23T09:01:16.337Z,2.38
2022-12-23T09:03:44.514Z,2.37
2022-12-23T09:06:16.678Z,2.37
2022-12-23T09:08:43.933Z,2.48
2022-12-23T09:11:13.309Z,2.42
2022-12-23T09:13:40.593Z,2.39
2022-12-23T09:16:08.141Z,2.37
2022-12-23T09:18:35.517Z,2.37
2022-12-23T09:21:14.011Z,2.42
2022-12-23T09:23:41.524Z,2.45
2022-12-23T09:26:09.337Z,2.50
2022-12-23T09:28:36.443Z,2.55
2022-12-23T09:31:08.974Z,2.56
2022-12-23T09:33:36.256Z,2.58
2022-12-23T09:36:04.242Z,2.68
2022-12-23T09:38:31.798Z,2.73
2022-12-23T09:41:13.080Z,2.80
2022-12-23T09:43:53.186Z,2.74
2022-12-23T09:46:24.237Z,2.68
2022-12-23T09:49:03.107Z,2.67
2022-12-23T09:51:31.541Z,2.67
2022-12-23T09:54:17.452Z,2.98
2022-12-23T09:56:51.328Z,3.18
2022-12-23T09:59:55.951Z,3.36
2022-12-23T10:03:06.845Z,3.50
2022-12-23T10:06:04.008Z,3.65
2022-12-23T10:08:38.322Z,3.78
2022-12-23T10:11:15.931Z,3.85
2022-12-23T10:13:50.352Z,3.93
2022-12-23T10:16:21.632Z,4.04
2022-12-23T10:19:01.781Z,4.17
2022-12-23T10:21:47.328Z,4.30
2022-12-23T10:24:45.277Z,4.37
2022-12-23T10:27:48.973Z,4.52
2022-12-23T10:33:22.995Z,4.90
2022-12-23T10:36:04.450Z,5.00
2022-12-23T10:38:42.940Z,5.21
2022-12-23T10:41:22.890Z,5.50
2022-12-23T10:44:04.284Z,6.21
2022-12-23T10:46:44.927Z,6.71
2022-12-23T10:49:30.910Z,7.18
2022-12-23T10:52:03.777Z,7.68
2022-12-23T10:54:35.691Z,7.98
2022-12-23T10:57:04.713Z,8.16
2022-12-23T10:59:34.674Z,8.23
2022-12-23T11:02:13.759Z,8.37
2022-12-23T11:04:43.402Z,8.38
2022-12-23T11:10:16.384Z,8.48
2022-12-23T11:12:47.502Z,8.92
2022-12-23T11:15:27.447Z,11.44
2022-12-23T11:18:18.505Z,14.48
2022-12-23T11:21:00.977Z,16.89
2022-12-23T11:23:31.001Z,19.08
2022-12-23T11:26:06.949Z,20.85
2022-12-23T11:28:38.052Z,22.52
2022-12-23T11:31:12.314Z,23.45
2022-12-23T11:33:56.054Z,24.77
2022-12-23T11:36:25.146Z,25.20
2022-12-23T11:39:04.041Z,25.74
2022-12-23T11:41:41.386Z,26.54
2022-12-23T11:44:43.232Z,26.27
2022-12-23T11:47:22.271Z,25.94
2022-12-23T11:50:01.259Z,25.50
2022-12-23T11:52:30.727Z,24.79
2022-12-23T11:55:05.638Z,24.03
2022-12-23T11:57:47.981Z,24.19
2022-12-23T12:00:34.705Z,24.13
2022-12-23T12:03:03.704Z,24.14
2022-12-23T12:05:37.601Z,23.27
2022-12-23T12:08:09.912Z,19.94
2022-12-23T12:10:39.223Z,17.53
2022-12-23T12:13:20.615Z,15.58
2022-12-23T12:15:57.875Z,13.50
2022-12-23T12:18:26.001Z,12.07
2022-12-23T12:21:00.912Z,11.48
2022-12-23T12:23:35.617Z,11.25
2022-12-23T12:26:12.485Z,11.63
2022-12-23T12:28:43.179Z,13.85
2022-12-23T12:31:18.993Z,13.15
2022-12-23T12:34:05.940Z,11.78
2022-12-23T12:36:55.721Z,11.08
2022-12-23T12:39:43.336Z,10.59
2022-12-23T12:42:44.746Z,10.08
2022-12-23T12:45:25.000Z,9.83
2022-12-23T12:48:22.930Z,9.65
2022-12-23T12:51:21.092Z,9.23
2022-12-23T12:54:04.651Z,9.13
2022-12-23T12:56:45.440Z,9.06
2022-12-23T12:59:17.868Z,8.89
2022-12-23T13:02:02.455Z,8.63
2022-12-23T13:04:35.174Z,8.57
2022-12-23T13:07:24.439Z,8.50
2022-12-23T13:10:09.475Z,8.37
2022-12-23T13:12:46.093Z,8.31
2022-12-23T13:15:29.653Z,8.19
2022-12-23T13:18:12.099Z,8.11
2022-12-23T13:20:48.592Z,8.06
2022-12-23T13:23:44.164Z,8.03
2022-12-23T13:26:24.615Z,7.97
2022-12-23T13:29:27.969Z,8.00
2022-12-23T13:32:30.033Z,7.99
2022-12-23T13:35:02.672Z,8.11
2022-12-23T13:38:08.020Z,8.21
2022-12-23T13:40:59.842Z,8.18
2022-12-23T13:43:37.251Z,8.16
2022-12-23T13:46:12.824Z,8.15
2022-12-23T13:48:48.699Z,8.12
2022-12-23T13:51:35.908Z,8.10
2022-12-23T13:54:20.789Z,8.06
2022-12-23T13:56:55.468Z,8.05
2022-12-23T13:59:22.353Z,8.02
2022-12-23T14:01:52.558Z,8.15
2022-12-23T14:04:54.532Z,8.08
2022-12-23T14:07:23.196Z,8.05
2022-12-23T14:09:59.636Z,8.05
2022-12-23T14:12:35.647Z,8.05
2022-12-23T14:15:26.478Z,8.01
2022-12-23T14:18:15.113Z,7.94
2022-12-23T14:20:51.282Z,7.92
2022-12-23T14:24:02.489Z,7.86
2022-12-23T14:26:43.030Z,7.82
2022-12-23T14:29:29.782Z,7.77
2022-12-23T14:31:58.402Z,7.75
2022-12-23T14:34:30.340Z,7.72
2022-12-23T14:37:24.204Z,7.68
2022-12-23T14:39:52.586Z,7.61
2022-12-23T14:42:39.849Z,7.54
2022-12-23T14:45:30.239Z,7.51
2022-12-23T14:47:57.262Z,7.53
2022-12-23T14:50:34.042Z,7.49
2022-12-23T14:53:22.830Z,7.43
2022-12-23T14:55:51.365Z,7.40
2022-12-23T14:58:18.075Z,7.36
2022-12-23T15:00:50.981Z,7.26
2022-12-23T15:03:20.332Z,7.19
2022-12-23T15:05:47.489Z,7.12
2022-12-23T15:08:33.283Z,7.11
2022-12-23T15:11:00.097Z,6.97
2022-12-23T15:13:28.802Z,6.81
2022-12-23T15:16:01.457Z,6.79
2022-12-23T15:18:29.358Z,6.65
2022-12-23T15:21:04.833Z,6.51
2022-12-23T15:23:33.347Z,6.49
2022-12-23T15:26:01.548Z,6.55
2022-12-23T15:28:39.568Z,6.60
2022-12-23T15:31:11.007Z,6.58
2022-12-23T15:36:37.721Z,6.55
2022-12-23T15:39:09.821Z,6.50
2022-12-23T15:41:47.307Z,6.47
2022-12-23T15:44:22.529Z,6.40
2022-12-23T15:46:50.952Z,6.45
2022-12-23T15:49:20.467Z,6.39
2022-12-23T15:52:16.594Z,6.36
2022-12-23T15:54:54.169Z,6.33
2022-12-23T15:57:24.469Z,6.30
2022-12-23T15:59:51.583Z,6.20
2022-12-23T16:05:33.822Z,6.14
2022-12-23T16:08:16.426Z,6.08
2022-12-23T16:11:04.395Z,5.96
2022-12-23T16:13:31.717Z,5.95
2022-12-23T16:16:18.624Z,5.95
2022-12-23T16:18:47.870Z,5.93
2022-12-23T16:21:15.440Z,5.89
2022-12-23T16:23:50.635Z,5.86
2022-12-23T16:26:17.689Z,5.87
2022-12-23T16:28:49.500Z,5.85
2022-12-23T16:31:18.201Z,5.81
2022-12-23T16:33:49.927Z,5.72
2022-12-23T16:36:19.798Z,5.76
2022-12-23T16:38:48.163Z,5.70
2022-12-23T16:41:15.128Z,5.75
2022-12-23T16:43:51.308Z,5.65
2022-12-23T16:46:21.331Z,5.75
2022-12-23T16:48:51.295Z,5.63
2022-12-23T16:51:20.831Z,5.54
2022-12-23T16:53:48.854Z,5.52
2022-12-23T16:56:18.264Z,5.47
2022-12-23T16:58:45.220Z,5.42
2022-12-23T17:01:15.212Z,5.34
2022-12-23T17:03:41.913Z,5.34
2022-12-23T17:06:14.455Z,5.23
2022-12-23T17:08:42.034Z,5.17
2022-12-23T17:11:18.400Z,5.16
2022-12-23T17:13:45.733Z,5.13
2022-12-23T17:16:20.072Z,5.04
2022-12-23T17:18:48.652Z,4.95
2022-12-23T17:21:23.426Z,4.95
2022-12-23T17:23:56.841Z,4.91
2022-12-23T17:26:23.603Z,4.92
2022-12-23T17:28:50.523Z,4.94
2022-12-23T17:31:26.263Z,4.93
2022-12-23T17:33:54.532Z,4.97
2022-12-23T17:36:21.595Z,5.01
2022-12-23T17:38:48.424Z,5.10
2022-12-23T17:41:29.818Z,5.16
2022-12-23T17:43:57.026Z,5.13
2022-12-23T17:46:24.683Z,5.15
2022-12-23T17:48:51.497Z,5.17
2022-12-23T17:51:21.000Z,5.23
2022-12-23T17:53:55.181Z,5.27
2022-12-23T17:56:26.530Z,5.33
2022-12-23T17:58:53.885Z,5.36
2022-12-23T18:01:32.112Z,5.36
2022-12-23T18:04:00.070Z,5.39
2022-12-23T18:06:28.495Z,5.40
2022-12-23T18:08:59.021Z,5.42
2022-12-23T18:11:38.134Z,5.49
2022-12-23T18:14:05.131Z,5.51
2022-12-23T18:16:32.026Z,5.46
2022-12-23T18:18:58.907Z,5.43
2022-12-23T18:21:29.300Z,5.42
2022-12-23T18:23:58.774Z,5.34
2022-12-23T18:26:25.855Z,5.23
2022-12-23T18:28:54.386Z,5.26
2022-12-23T18:31:27.377Z,5.31
2022-12-23T18:33:54.504Z,5.41
2022-12-23T18:36:30.512Z,5.29
2022-12-23T18:38:57.694Z,5.28
2022-12-23T18:41:25.588Z,5.25
2022-12-23T18:43:53.426Z,5.24
2022-12-23T18:46:20.661Z,5.26
2022-12-23T18:48:48.054Z,5.26
2022-12-23T18:51:16.964Z,5.27
2022-12-23T18:53:45.320Z,5.36
2022-12-23T18:56:16.718Z,5.36
2022-12-23T18:58:43.574Z,5.38
2022-12-23T19:01:15.012Z,5.38
2022-12-23T19:03:42.359Z,5.38
2022-12-23T19:06:12.417Z,5.33
2022-12-23T19:08:39.236Z,5.33
2022-12-23T19:11:15.523Z,5.31
2022-12-23T19:13:42.385Z,5.42
2022-12-23T19:16:13.484Z,5.37
2022-12-23T19:18:40.322Z,5.32
2022-12-23T19:21:07.037Z,5.30
2022-12-23T19:23:33.828Z,5.28
2022-12-23T19:26:00.577Z,5.42
2022-12-23T19:28:27.552Z,5.41
2022-12-23T19:30:54.397Z,5.50
2022-12-23T19:33:21.145Z,5.47
2022-12-23T19:35:47.911Z,5.44
2022-12-23T19:38:14.714Z,5.40
2022-12-23T19:40:41.672Z,5.39
2022-12-23T19:43:08.425Z,5.43
2022-12-23T19:45:35.165Z,5.44
2022-12-23T19:48:01.971Z,5.41
2022-12-23T19:50:28.803Z,5.37
2022-12-23T19:52:56.487Z,5.34
2022-12-23T19:55:24.170Z,5.38
2022-12-23T19:57:52.335Z,5.38
2022-12-23T20:00:19.327Z,5.34
2022-12-23T20:02:46.197Z,5.34
2022-12-23T20:05:12.977Z,5.35
2022-12-23T20:07:39.705Z,5.31
2022-12-23T20:10:07.597Z,5.43
2022-12-23T20:12:34.431Z,5.47
2022-12-23T20:15:01.222Z,5.51
2022-12-23T20:17:27.980Z,5.54
2022-12-23T20:19:54.727Z,5.51
2022-12-23T20:22:21.830Z,5.44
2022-12-23T20:24:49.035Z,5.47
2022-12-23T20:27:16.345Z,5.45
2022-12-23T20:29:44.365Z,5.39
2022-12-23T20:32:11.069Z,5.29
2022-12-23T20:34:40.085Z,5.21
2022-12-23T20:37:07.758Z,5.19
2022-12-23T20:39:35.220Z,5.29
2022-12-23T20:42:02.113Z,5.32
2022-12-23T20:44:37.319Z,5.22
2022-12-23T20:47:06.176Z,5.13
2022-12-23T20:49:33.377Z,5.09
2022-12-23T20:52:00.377Z,5.02
2022-12-23T20:54:32.757Z,5.03
2022-12-23T20:57:01.446Z,5.04
2022-12-23T20:59:28.298Z,5.08
2022-12-23T21:01:55.366Z,5.01
2022-12-23T21:04:22.847Z,4.89
2022-12-23T21:06:49.839Z,4.85
2022-12-23T21:09:17.398Z,4.98
2022-12-23T21:11:46.436Z,5.01
2022-12-23T21:14:14.545Z,5.13
2022-12-23T21:16:41.773Z,5.33
2022-12-23T21:19:13.076Z,5.46
2022-12-23T21:21:39.870Z,5.45
2022-12-23T21:24:06.773Z,5.46
2022-12-23T21:26:34.601Z,5.50
2022-12-23T21:29:04.775Z,5.55
2022-12-23T21:31:33.494Z,5.59
2022-12-23T21:34:00.393Z,5.71
2022-12-23T21:36:31.257Z,5.84
2022-12-23T21:38:59.256Z,5.86
2022-12-23T21:41:31.786Z,6.06
2022-12-23T21:44:00.279Z,6.20
2022-12-23T21:46:28.263Z,6.39
2022-12-23T21:48:56.672Z,6.59
2022-12-23T21:51:26.608Z,6.57
2022-12-23T21:53:55.095Z,6.70
2022-12-23T21:56:24.387Z,6.78
2022-12-23T21:58:56.052Z,6.85
2022-12-23T22:01:23.576Z,6.92
2022-12-23T22:03:51.928Z,7.00
2022-12-23T22:06:21.355Z,7.17
2022-12-23T22:08:48.466Z,7.29
2022-12-23T22:11:21.262Z,7.43
2022-12-23T22:13:48.355Z,7.62
2022-12-23T22:16:20.775Z,7.72
2022-12-23T22:18:48.187Z,7.77
2022-12-23T22:21:22.962Z,7.79
2022-12-23T22:23:51.278Z,7.82
2022-12-23T22:26:25.300Z,7.83
2022-12-23T22:28:55.211Z,7.91
2022-12-23T22:31:43.296Z,8.03
2022-12-23T22:34:14.692Z,7.96
2022-12-23T22:36:41.928Z,7.93
2022-12-23T22:39:12.962Z,7.91
2022-12-23T22:41:42.792Z,7.99
2022-12-23T22:44:11.511Z,8.00
2022-12-23T22:46:38.357Z,7.98
2022-12-23T22:49:05.119Z,8.02
2022-12-23T22:51:32.225Z,7.90
2022-12-23T22:53:59.820Z,7.87
2022-12-23T22:56:26.761Z,7.86
2022-12-23T22:58:55.115Z,7.99
2022-12-23T23:01:34.616Z,7.92
2022-12-23T23:04:03.441Z,7.85
2022-12-23T23:06:31.412Z,7.83
2022-12-23T23:08:58.635Z,7.84
2022-12-23T23:11:27.165Z,7.83
2022-12-23T23:13:54.961Z,7.92
2022-12-23T23:16:22.316Z,7.83
2022-12-23T23:18:49.782Z,7.78
2022-12-23T23:21:17.007Z,7.74
2022-12-23T23:23:43.927Z,7.76
2022-12-23T23:26:11.071Z,7.71
2022-12-23T23:28:39.570Z,7.66
2022-12-23T23:31:40.486Z,7.65
2022-12-23T23:33:54.441Z,7.58
2022-12-23T23:36:21.400Z,7.58
2022-12-23T23:38:48.317Z,7.56
2022-12-23T23:41:18.915Z,7.56
2022-12-23T23:43:49.632Z,7.52
2022-12-23T23:46:16.407Z,7.45
2022-12-23T23:48:43.182Z,7.56
2022-12-23T23:51:09.979Z,7.55
2022-12-23T23:53:36.838Z,7.59
2022-12-23T23:56:08.189Z,7.60
2022-12-23T23:58:36.208Z,7.56
